This is the latest recevied weather packets stored in our database for station/object KI4FRU. If no packets are shown the sender has not sent any weather packets the latest 10 day(s).
| Time | Temp. | Humidity | Pressure | Rain* | Wind** | Luminosity | Snow |
|---|---|---|---|---|---|---|---|
| 1778014785 | 27.22° C | 47% | 1052.7 hPa | 0 mm | - | 128 W/m² | - |
| 1778014484 | 25.56° C | 49% | 1052.6 hPa | 0 mm | - | 354 W/m² | - |
| 1778014180 | 25.56° C | 51% | 1052.6 hPa | 0 mm | - | 257 W/m² | - |
| 1778013878 | 26.11° C | 49% | 1052.7 hPa | 0 mm | - | 130 W/m² | - |
| 1778013575 | 26.67° C | 48% | 1052.6 hPa | 0 mm | - | 107 W/m² | - |
| 1778013271 | 27.22° C | 46% | 1052.7 hPa | 0 mm | - | 212 W/m² | - |
| 1778012967 | 27.22° C | 46% | 1052.8 hPa | 0 mm | - | 207 W/m² | - |
| 1778012664 | 27.22° C | 46% | 1052.9 hPa | 0 mm | - | 138 W/m² | - |
| 1778012361 | 27.78° C | 48% | 1052.9 hPa | 0 mm | - | 121 W/m² | - |
| 1778012058 | 27.78° C | 44% | 1053 hPa | 0 mm | - | 185 W/m² | - |
| 1778011756 | 27.78° C | 44% | 1053.3 hPa | 0 mm | - | 266 W/m² | - |
| 1778011453 | 27.78° C | 45% | 1053 hPa | 0 mm | - | 431 W/m² | - |
| 1778011148 | 28.33° C | 44% | 1053.4 hPa | 0 mm | - | 470 W/m² | - |
| 1778010846 | 29.44° C | 48% | 1053.3 hPa | 0 mm | - | 102 W/m² | - |
| 1778010543 | 28.33° C | 43% | 1053.4 hPa | 0 mm | - | 580 W/m² | - |
| 1778010240 | 28.33° C | 44% | 1053.3 hPa | 0 mm | - | 273 W/m² | - |
| 1778009935 | 27.78° C | 48% | 1053.2 hPa | 0 mm | - | 613 W/m² | - |
| 1778009633 | 28.33° C | 46% | 1053.3 hPa | 0 mm | - | 546 W/m² | - |
| 1778009331 | 27.78° C | 45% | 1053.3 hPa | 0 mm | - | 597 W/m² | - |
| 1778009029 | 27.78° C | 47% | 1053.6 hPa | 0 mm | - | 423 W/m² | - |
| 1778008726 | 28.33° C | 40% | 1053.3 hPa | 0 mm | - | 610 W/m² | - |
| 1778008424 | 28.33° C | 43% | 1053.5 hPa | 0 mm | - | 595 W/m² | - |
| 1778008121 | 28.33° C | 43% | 1053.8 hPa | 0 mm | - | 653 W/m² | - |
| 1778007816 | 28.33° C | 45% | 1054 hPa | 0 mm | - | 469 W/m² | - |
| 1778007512 | 28.89° C | 45% | 1053.8 hPa | 0 mm | - | 630 W/m² | - |
* Rain latest hour (hover to see other rain measurements)
** Current wind speed in m/s (hover to see current wind gust speed)